sensor_id;sensor_type;location;lat;lon;timestamp;pressure;altitude;pressure_sealevel;temperature;humidity
81125;BME280;72192;52.114;5.424;2024-03-23T00:54:16;101185.06;;;6.52;100.00
81125;BME280;72192;52.114;5.424;2024-03-23T00:56:43;101194.41;;;6.58;100.00
81125;BME280;72192;52.114;5.424;2024-03-23T00:59:11;101173.28;;;6.44;100.00
81125;BME280;72192;52.114;5.424;2024-03-23T01:04:23;101178.66;;;6.44;100.00
81125;BME280;72192;52.114;5.424;2024-03-23T01:06:52;101169.88;;;6.42;100.00
81125;BME280;72192;52.114;5.424;2024-03-23T01:09:19;101180.56;;;6.53;100.00
81125;BME280;72192;52.114;5.424;2024-03-23T01:11:52;101197.09;;;6.58;100.00
81125;BME280;72192;52.114;5.424;2024-03-23T01:14:29;101152.94;;;6.41;100.00
81125;BME280;72192;52.114;5.424;2024-03-23T01:17:00;101163.00;;;6.49;100.00
81125;BME280;72192;52.114;5.424;2024-03-23T01:19:33;101180.06;;;6.59;100.00
81125;BME280;72192;52.114;5.424;2024-03-23T01:24:44;101141.50;;;6.39;100.00
81125;BME280;72192;52.114;5.424;2024-03-23T01:27:18;101143.66;;;6.45;100.00
81125;BME280;72192;52.114;5.424;2024-03-23T01:29:58;101147.91;;;6.48;100.00
81125;BME280;72192;52.114;5.424;2024-03-23T01:32:39;101149.50;;;6.50;100.00
81125;BME280;72192;52.114;5.424;2024-03-23T01:35:11;101160.66;;;6.55;100.00
81125;BME280;72192;52.114;5.424;2024-03-23T01:40:18;101134.19;;;6.41;100.00
81125;BME280;72192;52.114;5.424;2024-03-23T01:42:56;101137.44;;;6.45;100.00
81125;BME280;72192;52.114;5.424;2024-03-23T01:45:24;101124.22;;;6.32;100.00
81125;BME280;72192;52.114;5.424;2024-03-23T01:47:59;101138.34;;;6.34;100.00
81125;BME280;72192;52.114;5.424;2024-03-23T01:50:28;101107.97;;;6.13;100.00
81125;BME280;72192;52.114;5.424;2024-03-23T01:53:30;101109.47;;;6.06;100.00
81125;BME280;72192;52.114;5.424;2024-03-23T01:56:00;101131.75;;;6.06;100.00
81125;BME280;72192;52.114;5.424;2024-03-23T02:01:22;101112.47;;;5.80;100.00
81125;BME280;72192;52.114;5.424;2024-03-23T02:03:56;101129.97;;;5.84;100.00
81125;BME280;72192;52.114;5.424;2024-03-23T02:06:33;101097.91;;;5.62;100.00
81125;BME280;72192;52.114;5.424;2024-03-23T02:11:47;101126.50;;;5.61;100.00
81125;BME280;72192;52.114;5.424;2024-03-23T02:14:19;101103.28;;;5.39;100.00
81125;BME280;72192;52.114;5.424;2024-03-23T02:16:48;101114.13;;;5.38;100.00
81125;BME280;72192;52.114;5.424;2024-03-23T02:19:16;101098.31;;;5.24;100.00
81125;BME280;72192;52.114;5.424;2024-03-23T02:21:43;101102.09;;;5.21;100.00
81125;BME280;72192;52.114;5.424;2024-03-23T02:24:15;101127.03;;;5.33;100.00
81125;BME280;72192;52.114;5.424;2024-03-23T02:26:47;101100.16;;;5.12;100.00
81125;BME280;72192;52.114;5.424;2024-03-23T02:29:25;101123.53;;;5.21;100.00
81125;BME280;72192;52.114;5.424;2024-03-23T02:32:01;101121.91;;;5.18;100.00
81125;BME280;72192;52.114;5.424;2024-03-23T02:38:16;101090.91;;;4.94;100.00
81125;BME280;72192;52.114;5.424;2024-03-23T02:40:45;101069.28;;;4.85;100.00
81125;BME280;72192;52.114;5.424;2024-03-23T02:43:14;101084.47;;;4.85;100.00
81125;BME280;72192;52.114;5.424;2024-03-23T02:45:47;101085.06;;;4.77;100.00
81125;BME280;72192;52.114;5.424;2024-03-23T02:48:16;101100.88;;;4.80;100.00
81125;BME280;72192;52.114;5.424;2024-03-23T02:50:43;101075.19;;;4.55;100.00
81125;BME280;72192;52.114;5.424;2024-03-23T02:53:12;101101.50;;;4.73;100.00
81125;BME280;72192;52.114;5.424;2024-03-23T02:55:44;101115.22;;;4.79;100.00
81125;BME280;72192;52.114;5.424;2024-03-23T02:58:18;101071.03;;;4.51;100.00
81125;BME280;72192;52.114;5.424;2024-03-23T03:00:53;101116.78;;;4.71;100.00
81125;BME280;72192;52.114;5.424;2024-03-23T03:06:09;101099.59;;;4.51;100.00
81125;BME280;72192;52.114;5.424;2024-03-23T03:08:36;101089.88;;;4.39;100.00
81125;BME280;72192;52.114;5.424;2024-03-23T03:11:09;101113.22;;;4.48;100.00
81125;BME280;72192;52.114;5.424;2024-03-23T03:20:59;101072.09;;;4.15;100.00
81125;BME280;72192;52.114;5.424;2024-03-23T03:23:35;101105.16;;;4.37;100.00
81125;BME280;72192;52.114;5.424;2024-03-23T03:26:34;101108.31;;;4.30;100.00
81125;BME280;72192;52.114;5.424;2024-03-23T03:29:05;101073.00;;;4.03;100.00
81125;BME280;72192;52.114;5.424;2024-03-23T03:38:16;101078.56;;;4.00;100.00
81125;BME280;72192;52.114;5.424;2024-03-23T03:40:44;101053.41;;;3.91;100.00
81125;BME280;72192;52.114;5.424;2024-03-23T03:47:19;101090.38;;;4.09;100.00
81125;BME280;72192;52.114;5.424;2024-03-23T03:53:02;101064.94;;;3.92;100.00
81125;BME280;72192;52.114;5.424;2024-03-23T03:55:32;101035.16;;;3.74;100.00
81125;BME280;72192;52.114;5.424;2024-03-23T03:58:05;101078.94;;;3.95;100.00
81125;BME280;72192;52.114;5.424;2024-03-23T04:03:38;101039.56;;;3.62;100.00
81125;BME280;72192;52.114;5.424;2024-03-23T04:06:19;101073.88;;;3.80;100.00
81125;BME280;72192;52.114;5.424;2024-03-23T04:08:52;101085.16;;;3.83;100.00
81125;BME280;72192;52.114;5.424;2024-03-23T04:11:23;101047.56;;;3.62;100.00
81125;BME280;72192;52.114;5.424;2024-03-23T04:13:52;101066.09;;;3.77;100.00
81125;BME280;72192;52.114;5.424;2024-03-23T04:16:28;101074.50;;;3.83;100.00
81125;BME280;72192;52.114;5.424;2024-03-23T04:18:59;101054.69;;;3.74;100.00
81125;BME280;72192;52.114;5.424;2024-03-23T04:21:26;101061.94;;;3.72;100.00
81125;BME280;72192;52.114;5.424;2024-03-23T04:23:58;101056.00;;;3.69;100.00
81125;BME280;72192;52.114;5.424;2024-03-23T04:26:25;101049.50;;;3.60;100.00
81125;BME280;72192;52.114;5.424;2024-03-23T04:28:55;101032.38;;;3.52;100.00
81125;BME280;72192;52.114;5.424;2024-03-23T04:31:29;101067.53;;;3.69;100.00
81125;BME280;72192;52.114;5.424;2024-03-23T04:33:58;101040.50;;;3.50;100.00
81125;BME280;72192;52.114;5.424;2024-03-23T04:36:24;101060.06;;;3.62;100.00
81125;BME280;72192;52.114;5.424;2024-03-23T04:38:53;101032.06;;;3.43;100.00
81125;BME280;72192;52.114;5.424;2024-03-23T04:41:29;101062.63;;;3.63;100.00
81125;BME280;72192;52.114;5.424;2024-03-23T04:44:01;101064.34;;;3.64;100.00
81125;BME280;72192;52.114;5.424;2024-03-23T04:48:59;101047.03;;;3.46;100.00
81125;BME280;72192;52.114;5.424;2024-03-23T04:54:26;101053.72;;;3.52;100.00
81125;BME280;72192;52.114;5.424;2024-03-23T04:56:56;101045.31;;;3.45;100.00
81125;BME280;72192;52.114;5.424;2024-03-23T04:59:23;101034.97;;;3.40;100.00
81125;BME280;72192;52.114;5.424;2024-03-23T05:01:55;101025.81;;;3.32;100.00
81125;BME280;72192;52.114;5.424;2024-03-23T05:04:26;101045.66;;;3.40;100.00
81125;BME280;72192;52.114;5.424;2024-03-23T05:06:54;101050.13;;;3.40;100.00
81125;BME280;72192;52.114;5.424;2024-03-23T05:09:21;101043.53;;;3.33;100.00
81125;BME280;72192;52.114;5.424;2024-03-23T05:11:48;101031.22;;;3.19;100.00
81125;BME280;72192;52.114;5.424;2024-03-23T05:14:16;101057.53;;;3.24;100.00
81125;BME280;72192;52.114;5.424;2024-03-23T05:16:42;101044.69;;;3.17;100.00
81125;BME280;72192;52.114;5.424;2024-03-23T05:19:09;101043.16;;;3.13;100.00
81125;BME280;72192;52.114;5.424;2024-03-23T05:21:37;101044.13;;;3.12;100.00
81125;BME280;72192;52.114;5.424;2024-03-23T05:24:03;101046.69;;;3.14;100.00
81125;BME280;72192;52.114;5.424;2024-03-23T05:26:30;101064.44;;;3.15;100.00
81125;BME280;72192;52.114;5.424;2024-03-23T05:28:56;101056.63;;;3.12;100.00
81125;BME280;72192;52.114;5.424;2024-03-23T05:31:28;101070.81;;;3.12;100.00
81125;BME280;72192;52.114;5.424;2024-03-23T05:33:55;101065.47;;;3.12;100.00
81125;BME280;72192;52.114;5.424;2024-03-23T05:36:22;101070.06;;;3.10;100.00
81125;BME280;72192;52.114;5.424;2024-03-23T05:38:49;101064.25;;;3.05;100.00
81125;BME280;72192;52.114;5.424;2024-03-23T05:41:17;101064.97;;;3.07;100.00
81125;BME280;72192;52.114;5.424;2024-03-23T05:43:43;101055.66;;;3.13;100.00
81125;BME280;72192;52.114;5.424;2024-03-23T05:46:09;101067.47;;;3.22;100.00
81125;BME280;72192;52.114;5.424;2024-03-23T05:51:05;101061.78;;;3.39;100.00
81125;BME280;72192;52.114;5.424;2024-03-23T05:53:34;101057.47;;;3.49;100.00
81125;BME280;72192;52.114;5.424;2024-03-23T05:56:03;101041.75;;;3.57;100.00
81125;BME280;72192;52.114;5.424;2024-03-23T05:58:31;101030.09;;;3.58;100.00
81125;BME280;72192;52.114;5.424;2024-03-23T06:01:06;101029.66;;;3.64;100.00
81125;BME280;72192;52.114;5.424;2024-03-23T06:03:39;101023.84;;;3.70;100.00
81125;BME280;72192;52.114;5.424;2024-03-23T06:06:09;101042.34;;;3.85;100.00
81125;BME280;72192;52.114;5.424;2024-03-23T06:08:43;101055.50;;;3.99;100.00
81125;BME280;72192;52.114;5.424;2024-03-23T06:11:35;101045.13;;;3.83;100.00
81125;BME280;72192;52.114;5.424;2024-03-23T06:14:09;101053.53;;;3.90;100.00
81125;BME280;72192;52.114;5.424;2024-03-23T06:16:38;101047.06;;;3.81;100.00
81125;BME280;72192;52.114;5.424;2024-03-23T06:19:20;101048.16;;;3.79;100.00
81125;BME280;72192;52.114;5.424;2024-03-23T06:21:52;101037.19;;;3.70;100.00
81125;BME280;72192;52.114;5.424;2024-03-23T06:24:23;101054.47;;;3.78;100.00
81125;BME280;72192;52.114;5.424;2024-03-23T06:26:53;101048.38;;;3.76;100.00
81125;BME280;72192;52.114;5.424;2024-03-23T06:29:20;101044.75;;;3.77;100.00
81125;BME280;72192;52.114;5.424;2024-03-23T06:31:54;101054.75;;;3.86;100.00
81125;BME280;72192;52.114;5.424;2024-03-23T06:34:25;101039.78;;;3.83;100.00
81125;BME280;72192;52.114;5.424;2024-03-23T06:36:52;101017.56;;;3.83;100.00
81125;BME280;72192;52.114;5.424;2024-03-23T06:39:24;101035.84;;;4.00;100.00
81125;BME280;72192;52.114;5.424;2024-03-23T06:44:28;101040.75;;;4.28;100.00
81125;BME280;72192;52.114;5.424;2024-03-23T06:46:55;101033.00;;;4.37;100.00
81125;BME280;72192;52.114;5.424;2024-03-23T06:49:23;101023.91;;;4.50;100.00
81125;BME280;72192;52.114;5.424;2024-03-23T06:51:51;101034.63;;;4.73;100.00
81125;BME280;72192;52.114;5.424;2024-03-23T06:54:25;101048.34;;;4.90;100.00
81125;BME280;72192;52.114;5.424;2024-03-23T06:59:29;101050.00;;;5.36;100.00
81125;BME280;72192;52.114;5.424;2024-03-23T07:04:36;101008.44;;;6.48;100.00
81125;BME280;72192;52.114;5.424;2024-03-23T07:07:06;101032.78;;;6.96;100.00
81125;BME280;72192;52.114;5.424;2024-03-23T07:09:35;101018.19;;;7.19;100.00
81125;BME280;72192;52.114;5.424;2024-03-23T07:12:07;101013.41;;;7.42;100.00
81125;BME280;72192;52.114;5.424;2024-03-23T07:14:39;101009.34;;;7.67;100.00
81125;BME280;72192;52.114;5.424;2024-03-23T07:17:15;101021.78;;;7.88;100.00
81125;BME280;72192;52.114;5.424;2024-03-23T07:19:48;101027.69;;;8.30;100.00
81125;BME280;72192;52.114;5.424;2024-03-23T07:22:17;101025.69;;;8.51;100.00
81125;BME280;72192;52.114;5.424;2024-03-23T07:24:46;101022.28;;;8.49;100.00
81125;BME280;72192;52.114;5.424;2024-03-23T07:30:06;101017.94;;;7.52;100.00
81125;BME280;72192;52.114;5.424;2024-03-23T07:35:01;101020.59;;;8.29;100.00
81125;BME280;72192;52.114;5.424;2024-03-23T07:37:33;101022.88;;;8.43;100.00
81125;BME280;72192;52.114;5.424;2024-03-23T07:40:04;101023.63;;;8.16;100.00
81125;BME280;72192;52.114;5.424;2024-03-23T07:43:03;101016.94;;;8.20;100.00
81125;BME280;72192;52.114;5.424;2024-03-23T07:45:33;101020.34;;;8.03;100.00
81125;BME280;72192;52.114;5.424;2024-03-23T07:48:05;101036.34;;;7.66;100.00
81125;BME280;72192;52.114;5.424;2024-03-23T07:50:35;101027.38;;;7.36;100.00
81125;BME280;72192;52.114;5.424;2024-03-23T07:53:04;101012.97;;;7.28;100.00
81125;BME280;72192;52.114;5.424;2024-03-23T07:55:32;101017.25;;;7.40;100.00
81125;BME280;72192;52.114;5.424;2024-03-23T07:58:01;101025.03;;;7.62;100.00
81125;BME280;72192;52.114;5.424;2024-03-23T08:00:30;101019.09;;;7.49;100.00
81125;BME280;72192;52.114;5.424;2024-03-23T08:03:02;101017.06;;;7.22;100.00
81125;BME280;72192;52.114;5.424;2024-03-23T08:05:33;101030.34;;;7.33;100.00
81125;BME280;72192;52.114;5.424;2024-03-23T08:08:04;101032.06;;;7.44;100.00
81125;BME280;72192;52.114;5.424;2024-03-23T08:11:15;100994.44;;;7.34;100.00
81125;BME280;72192;52.114;5.424;2024-03-23T08:13:49;101030.81;;;7.38;100.00
81125;BME280;72192;52.114;5.424;2024-03-23T08:16:18;101009.31;;;7.29;100.00
81125;BME280;72192;52.114;5.424;2024-03-23T08:19:00;101036.06;;;7.59;100.00
81125;BME280;72192;52.114;5.424;2024-03-23T08:21:42;100994.44;;;7.34;100.00
81125;BME280;72192;52.114;5.424;2024-03-23T08:24:12;101007.59;;;7.47;100.00
81125;BME280;72192;52.114;5.424;2024-03-23T08:26:45;101034.78;;;7.73;100.00
81125;BME280;72192;52.114;5.424;2024-03-23T08:31:40;101014.56;;;7.98;100.00
81125;BME280;72192;52.114;5.424;2024-03-23T08:34:07;101018.94;;;8.18;100.00
81125;BME280;72192;52.114;5.424;2024-03-23T08:36:43;101036.91;;;8.47;100.00
81125;BME280;72192;52.114;5.424;2024-03-23T08:39:13;101015.09;;;8.40;100.00
81125;BME280;72192;52.114;5.424;2024-03-23T08:41:43;101006.34;;;8.09;98.96
81125;BME280;72192;52.114;5.424;2024-03-23T08:44:13;101015.78;;;8.32;100.00
81125;BME280;72192;52.114;5.424;2024-03-23T08:46:43;101021.88;;;8.44;100.00
81125;BME280;72192;52.114;5.424;2024-03-23T08:49:12;101009.84;;;8.48;97.60
81125;BME280;72192;52.114;5.424;2024-03-23T08:54:50;101025.81;;;8.50;95.08
81125;BME280;72192;52.114;5.424;2024-03-23T08:57:23;100996.25;;;8.30;100.00
81125;BME280;72192;52.114;5.424;2024-03-23T09:03:03;101005.00;;;9.16;96.90
81125;BME280;72192;52.114;5.424;2024-03-23T09:05:39;100989.91;;;9.24;95.38
81125;BME280;72192;52.114;5.424;2024-03-23T09:08:09;101006.88;;;9.52;87.57
81125;BME280;72192;52.114;5.424;2024-03-23T09:10:43;101011.41;;;9.33;85.54
81125;BME280;72192;52.114;5.424;2024-03-23T09:16:00;101003.75;;;9.74;81.33
81125;BME280;72192;52.114;5.424;2024-03-23T09:18:32;101003.13;;;9.80;83.49
81125;BME280;72192;52.114;5.424;2024-03-23T09:21:01;101012.75;;;9.65;90.02
81125;BME280;72192;52.114;5.424;2024-03-23T09:23:29;101011.78;;;9.20;93.77
81125;BME280;72192;52.114;5.424;2024-03-23T09:26:05;101020.28;;;8.61;94.70
81125;BME280;72192;52.114;5.424;2024-03-23T09:33:33;100982.53;;;7.17;100.00
81125;BME280;72192;52.114;5.424;2024-03-23T09:40:41;101019.47;;;7.35;100.00
81125;BME280;72192;52.114;5.424;2024-03-23T09:43:11;100989.41;;;7.70;100.00
81125;BME280;72192;52.114;5.424;2024-03-23T09:45:48;101017.13;;;7.99;100.00
81125;BME280;72192;52.114;5.424;2024-03-23T09:48:17;101024.88;;;7.64;100.00
81125;BME280;72192;52.114;5.424;2024-03-23T09:50:45;101036.34;;;7.06;100.00
81125;BME280;72192;52.114;5.424;2024-03-23T09:53:14;101015.59;;;6.17;100.00
81125;BME280;72192;52.114;5.424;2024-03-23T09:58:17;101031.94;;;5.50;100.00
81125;BME280;72192;52.114;5.424;2024-03-23T10:01:13;101019.06;;;5.43;100.00
81125;BME280;72192;52.114;5.424;2024-03-23T10:03:44;100987.75;;;5.55;100.00
81125;BME280;72192;52.114;5.424;2024-03-23T10:06:13;100993.38;;;6.05;100.00
81125;BME280;72192;52.114;5.424;2024-03-23T10:08:46;101010.97;;;6.70;100.00
81125;BME280;72192;52.114;5.424;2024-03-23T10:11:16;100996.50;;;7.02;100.00
81125;BME280;72192;52.114;5.424;2024-03-23T10:13:43;100998.56;;;7.29;100.00
81125;BME280;72192;52.114;5.424;2024-03-23T10:16:21;101000.69;;;7.54;100.00
81125;BME280;72192;52.114;5.424;2024-03-23T10:18:55;100991.25;;;7.69;100.00
81125;BME280;72192;52.114;5.424;2024-03-23T10:21:25;100981.44;;;8.07;100.00
81125;BME280;72192;52.114;5.424;2024-03-23T10:29:02;101011.59;;;7.53;100.00
81125;BME280;72192;52.114;5.424;2024-03-23T10:31:38;100984.81;;;7.12;100.00
81125;BME280;72192;52.114;5.424;2024-03-23T10:34:12;100983.88;;;7.42;100.00
81125;BME280;72192;52.114;5.424;2024-03-23T10:36:41;100985.56;;;7.72;100.00
81125;BME280;72192;52.114;5.424;2024-03-23T10:42:57;100981.78;;;8.51;100.00
81125;BME280;72192;52.114;5.424;2024-03-23T10:45:28;100978.00;;;8.71;100.00
81125;BME280;72192;52.114;5.424;2024-03-23T10:51:11;100997.66;;;8.25;96.08
81125;BME280;72192;52.114;5.424;2024-03-23T10:57:15;101038.63;;;6.71;100.00
81125;BME280;72192;52.114;5.424;2024-03-23T10:59:47;101006.91;;;6.03;100.00
81125;BME280;72192;52.114;5.424;2024-03-23T11:02:41;101008.22;;;5.77;100.00
81125;BME280;72192;52.114;5.424;2024-03-23T11:05:30;100993.31;;;5.63;100.00
81125;BME280;72192;52.114;5.424;2024-03-23T11:08:03;100993.25;;;5.74;100.00
81125;BME280;72192;52.114;5.424;2024-03-23T11:10:34;101007.47;;;6.28;100.00
81125;BME280;72192;52.114;5.424;2024-03-23T11:13:22;101003.69;;;6.92;100.00
81125;BME280;72192;52.114;5.424;2024-03-23T11:15:52;100992.34;;;7.38;100.00
81125;BME280;72192;52.114;5.424;2024-03-23T11:18:22;100987.13;;;7.85;100.00
81125;BME280;72192;52.114;5.424;2024-03-23T11:20:51;100998.94;;;8.30;100.00
81125;BME280;72192;52.114;5.424;2024-03-23T11:23:28;100985.66;;;8.39;100.00
81125;BME280;72192;52.114;5.424;2024-03-23T11:25:58;100991.59;;;8.13;100.00
81125;BME280;72192;52.114;5.424;2024-03-23T11:28:28;101003.25;;;7.75;100.00
81125;BME280;72192;52.114;5.424;2024-03-23T11:34:26;100975.09;;;7.89;100.00
81125;BME280;72192;52.114;5.424;2024-03-23T11:37:04;100992.72;;;8.30;100.00
81125;BME280;72192;52.114;5.424;2024-03-23T11:43:14;100983.41;;;8.99;100.00
81125;BME280;72192;52.114;5.424;2024-03-23T11:45:48;100981.91;;;9.32;100.00
81125;BME280;72192;52.114;5.424;2024-03-23T11:48:20;100971.69;;;9.17;88.31
81125;BME280;72192;52.114;5.424;2024-03-23T11:53:35;100972.44;;;8.82;93.33
81125;BME280;72192;52.114;5.424;2024-03-23T12:01:10;100946.81;;;9.59;90.41
81125;BME280;72192;52.114;5.424;2024-03-23T12:03:39;100944.81;;;9.79;97.47
81125;BME280;72192;52.114;5.424;2024-03-23T12:06:11;100951.44;;;9.85;87.69
81125;BME280;72192;52.114;5.424;2024-03-23T12:08:49;100939.59;;;10.03;86.71
81125;BME280;72192;52.114;5.424;2024-03-23T12:11:28;100946.94;;;10.19;84.71
81125;BME280;72192;52.114;5.424;2024-03-23T12:16:42;100940.34;;;9.52;90.60
81125;BME280;72192;52.114;5.424;2024-03-23T12:19:15;100959.84;;;9.46;97.91
81125;BME280;72192;52.114;5.424;2024-03-23T12:30:41;100897.44;;;9.76;86.22
81125;BME280;72192;52.114;5.424;2024-03-23T12:33:32;100932.66;;;10.01;84.11
81125;BME280;72192;52.114;5.424;2024-03-23T12:36:01;100903.00;;;10.27;82.85
81125;BME280;72192;52.114;5.424;2024-03-23T12:38:31;100902.00;;;10.62;83.53
81125;BME280;72192;52.114;5.424;2024-03-23T12:45:16;100917.56;;;9.90;78.47
81125;BME280;72192;52.114;5.424;2024-03-23T12:47:43;100922.88;;;9.74;75.36
81125;BME280;72192;52.114;5.424;2024-03-23T12:50:15;100937.97;;;9.93;77.75
81125;BME280;72192;52.114;5.424;2024-03-23T12:57:41;100920.09;;;10.36;74.51
81125;BME280;72192;52.114;5.424;2024-03-23T13:03:56;100903.31;;;12.30;68.33
81125;BME280;72192;52.114;5.424;2024-03-23T13:09:37;100906.91;;;13.32;57.95
81125;BME280;72192;52.114;5.424;2024-03-23T13:12:06;100911.13;;;12.17;58.48
81125;BME280;72192;52.114;5.424;2024-03-23T13:14:34;100905.19;;;11.16;62.51
81125;BME280;72192;52.114;5.424;2024-03-23T13:17:01;100895.00;;;10.43;62.92
81125;BME280;72192;52.114;5.424;2024-03-23T13:19:31;100909.69;;;10.91;62.81
81125;BME280;72192;52.114;5.424;2024-03-23T13:22:01;100903.41;;;10.74;58.48
81125;BME280;72192;52.114;5.424;2024-03-23T13:24:29;100909.88;;;9.95;61.23
81125;BME280;72192;52.114;5.424;2024-03-23T13:26:58;100952.19;;;9.24;66.89
81125;BME280;72192;52.114;5.424;2024-03-23T13:29:26;100956.59;;;8.42;71.17
81125;BME280;72192;52.114;5.424;2024-03-23T13:31:53;100945.41;;;7.61;74.66
81125;BME280;72192;52.114;5.424;2024-03-23T13:40:06;100951.16;;;8.89;86.78
81125;BME280;72192;52.114;5.424;2024-03-23T13:45:14;100933.19;;;9.61;74.30
81125;BME280;72192;52.114;5.424;2024-03-23T13:47:49;100950.81;;;10.17;72.78
81125;BME280;72192;52.114;5.424;2024-03-23T13:50:30;100927.84;;;11.23;67.11
81125;BME280;72192;52.114;5.424;2024-03-23T13:53:01;100921.44;;;11.40;63.84
81125;BME280;72192;52.114;5.424;2024-03-23T13:58:56;100918.59;;;9.45;66.87
81125;BME280;72192;52.114;5.424;2024-03-23T14:01:29;100926.63;;;9.10;68.49
81125;BME280;72192;52.114;5.424;2024-03-23T14:03:57;100909.69;;;9.00;69.97
81125;BME280;72192;52.114;5.424;2024-03-23T14:06:26;100898.78;;;9.55;68.90
81125;BME280;72192;52.114;5.424;2024-03-23T14:08:55;100878.09;;;10.41;64.72
81125;BME280;72192;52.114;5.424;2024-03-23T14:11:30;100890.34;;;11.36;63.04
81125;BME280;72192;52.114;5.424;2024-03-23T14:14:06;100881.00;;;12.20;60.80
81125;BME280;72192;52.114;5.424;2024-03-23T14:19:04;100872.91;;;13.82;53.59
81125;BME280;72192;52.114;5.424;2024-03-23T14:21:34;100879.31;;;14.33;54.21
81125;BME280;72192;52.114;5.424;2024-03-23T14:24:10;100866.38;;;14.80;52.14
81125;BME280;72192;52.114;5.424;2024-03-23T14:26:44;100874.44;;;13.47;54.26
81125;BME280;72192;52.114;5.424;2024-03-23T14:29:14;100866.50;;;11.89;66.16
81125;BME280;72192;52.114;5.424;2024-03-23T14:31:42;100866.47;;;10.99;71.76
81125;BME280;72192;52.114;5.424;2024-03-23T14:34:10;100886.94;;;11.10;70.58
81125;BME280;72192;52.114;5.424;2024-03-23T14:36:37;100868.66;;;10.37;67.66
81125;BME280;72192;52.114;5.424;2024-03-23T14:41:58;100865.69;;;9.27;71.84
81125;BME280;72192;52.114;5.424;2024-03-23T14:44:25;100868.84;;;9.22;72.34
81125;BME280;72192;52.114;5.424;2024-03-23T14:46:56;100858.47;;;9.09;69.18
81125;BME280;72192;52.114;5.424;2024-03-23T14:49:28;100867.06;;;9.48;67.13
81125;BME280;72192;52.114;5.424;2024-03-23T14:51:57;100862.16;;;9.44;66.50
81125;BME280;72192;52.114;5.424;2024-03-23T14:54:24;100835.91;;;9.10;64.89
81125;BME280;72192;52.114;5.424;2024-03-23T14:56:53;100860.47;;;9.07;65.99
81125;BME280;72192;52.114;5.424;2024-03-23T14:59:25;100876.00;;;8.96;66.06
81125;BME280;72192;52.114;5.424;2024-03-23T15:04:46;100879.88;;;7.91;94.02
81125;BME280;72192;52.114;5.424;2024-03-23T15:07:14;100868.47;;;7.70;100.00
81125;BME280;72192;52.114;5.424;2024-03-23T15:09:41;100862.09;;;7.71;100.00
81125;BME280;72192;52.114;5.424;2024-03-23T15:15:02;100869.63;;;8.04;97.53
81125;BME280;72192;52.114;5.424;2024-03-23T15:17:32;100865.78;;;8.17;96.91
81125;BME280;72192;52.114;5.424;2024-03-23T15:20:05;100851.16;;;8.29;93.47
81125;BME280;72192;52.114;5.424;2024-03-23T15:22:35;100863.16;;;8.34;93.35
81125;BME280;72192;52.114;5.424;2024-03-23T15:25:02;100847.88;;;8.35;92.32
81125;BME280;72192;52.114;5.424;2024-03-23T15:27:36;100833.47;;;8.26;90.44
81125;BME280;72192;52.114;5.424;2024-03-23T15:32:52;100835.69;;;8.31;97.39
81125;BME280;72192;52.114;5.424;2024-03-23T15:41:02;100861.75;;;7.93;93.48
81125;BME280;72192;52.114;5.424;2024-03-23T15:51:04;100868.72;;;7.76;93.30
81125;BME280;72192;52.114;5.424;2024-03-23T15:53:43;100856.19;;;8.04;100.00
81125;BME280;72192;52.114;5.424;2024-03-23T15:58:42;100836.97;;;7.99;92.98
81125;BME280;72192;52.114;5.424;2024-03-23T16:01:10;100834.06;;;7.83;97.56
81125;BME280;72192;52.114;5.424;2024-03-23T16:03:39;100850.28;;;8.01;97.40
81125;BME280;72192;52.114;5.424;2024-03-23T16:06:12;100823.44;;;7.91;97.08
81125;BME280;72192;52.114;5.424;2024-03-23T16:08:49;100845.06;;;8.27;100.00
81125;BME280;72192;52.114;5.424;2024-03-23T16:11:22;100834.75;;;8.22;93.96
81125;BME280;72192;52.114;5.424;2024-03-23T16:13:55;100839.13;;;8.23;100.00
81125;BME280;72192;52.114;5.424;2024-03-23T16:16:25;100815.59;;;8.08;97.05
81125;BME280;72192;52.114;5.424;2024-03-23T16:18:54;100821.16;;;7.96;93.20
81125;BME280;72192;52.114;5.424;2024-03-23T16:21:21;100814.25;;;7.84;100.00
81125;BME280;72192;52.114;5.424;2024-03-23T16:23:53;100825.56;;;7.88;100.00
81125;BME280;72192;52.114;5.424;2024-03-23T16:26:28;100800.50;;;7.50;94.54
81125;BME280;72192;52.114;5.424;2024-03-23T16:28:58;100822.53;;;7.54;96.50
81125;BME280;72192;52.114;5.424;2024-03-23T16:31:25;100826.66;;;7.48;100.00
81125;BME280;72192;52.114;5.424;2024-03-23T16:36:40;100822.16;;;7.29;100.00
81125;BME280;72192;52.114;5.424;2024-03-23T16:39:09;100849.03;;;7.29;100.00
81125;BME280;72192;52.114;5.424;2024-03-23T16:41:44;100849.72;;;6.93;100.00
81125;BME280;72192;52.114;5.424;2024-03-23T16:44:20;100835.63;;;6.31;100.00
81125;BME280;72192;52.114;5.424;2024-03-23T16:46:56;100854.50;;;6.20;100.00
81125;BME280;72192;52.114;5.424;2024-03-23T16:49:25;100843.88;;;5.88;100.00
81125;BME280;72192;52.114;5.424;2024-03-23T16:51:58;100855.09;;;5.72;100.00
81125;BME280;72192;52.114;5.424;2024-03-23T16:54:31;100847.78;;;5.53;100.00
81125;BME280;72192;52.114;5.424;2024-03-23T16:57:08;100853.09;;;5.43;100.00
81125;BME280;72192;52.114;5.424;2024-03-23T16:59:35;100857.91;;;5.50;100.00
81125;BME280;72192;52.114;5.424;2024-03-23T17:02:04;100840.75;;;5.31;100.00
81125;BME280;72192;52.114;5.424;2024-03-23T17:04:34;100843.06;;;5.04;100.00
81125;BME280;72192;52.114;5.424;2024-03-23T17:07:17;100888.41;;;5.05;100.00
81125;BME280;72192;52.114;5.424;2024-03-23T17:09:50;100867.59;;;4.77;100.00
81125;BME280;72192;52.114;5.424;2024-03-23T17:12:16;100838.28;;;4.43;100.00
81125;BME280;72192;52.114;5.424;2024-03-23T17:14:51;100855.38;;;4.41;100.00
81125;BME280;72192;52.114;5.424;2024-03-23T17:17:22;100837.22;;;4.23;100.00
81125;BME280;72192;52.114;5.424;2024-03-23T17:19:49;100832.59;;;4.14;100.00